^^
Datos históricos de la estación: Murcia-Puente Tocinos
Diario Informe para Abril 26, 2019 Unidades:  Métrico    Ingés   Ambas
Diario Semanal Mensual Anual
  Máxima: Mínima: Promedio:
Temperatura: 28.7 °C 20.7 °C 24.2 °C
Punto de rocio: 20.6 °C 17.5 °C 19.2 °C
Humedad: 88% 51.1% 75%
Velocidad viento: 13km/h 0km/h 6km/h
Racha viento: 27.8km/h - -
Viento- - SE
Presión: 1018.4 hPa 1015.4 hPa -
Precipitación: 0.0 mm    
 
 
Tabla de datos para Abril 26, 2019
Hora Temperatura Punto de rocio Presión Viento Velocidad viento Racha viento Humedad Intensidad lluvia(por hora) Nubes
00:04 22.8 °C 20.5 °C 1015.8 hPa NNE 4.7 km/h 8 km/h 87% 0.0 mm
00:09 22.7 °C 20.5 °C 1015.8 hPa North 4.3 km/h 8 km/h 87% 0.0 mm
00:14 22.7 °C 20.5 °C 1015.8 hPa North 3.2 km/h 4.8 km/h 87% 0.0 mm
00:19 22.7 °C 20.4 °C 1015.8 hPa North 2.7 km/h 3.9 km/h 87% 0.0 mm
00:24 22.7 °C 20.4 °C 1015.8 hPa Calm   7.4 km/h 87% 0.0 mm
00:29 22.7 °C 20.6 °C 1015.8 hPa NE 0.9 km/h 8 km/h 87.7% 0.0 mm
00:34 22.7 °C 20.6 °C 1015.9 hPa NE 3.9 km/h 8 km/h 87.6% 0.0 mm
00:39 22.7 °C 20.5 °C 1015.9 hPa NE 3.6 km/h 6.4 km/h 87% 0.0 mm
00:44 22.7 °C 20.4 °C 1015.9 hPa NE 2.9 km/h 5.8 km/h 87% 0.0 mm
00:49 22.7 °C 20.5 °C 1016.0 hPa NE 3 km/h 6.4 km/h 87.3% 0.0 mm
00:54 22.7 °C 20.6 °C 1016.0 hPa NE 3.2 km/h 3.7 km/h 88% 0.0 mm
00:59 22.7 °C 20.6 °C 1016.0 hPa NE 3 km/h 5.8 km/h 88% 0.0 mm
01:04 22.7 °C 20.6 °C 1016.0 hPa ENE 2.2 km/h 6.4 km/h 88% 0.0 mm
01:09 22.7 °C 20.6 °C 1015.9 hPa ENE 2.4 km/h 6.4 km/h 88% 0.0 mm
01:14 22.7 °C 20.6 °C 1015.9 hPa ESE 2.9 km/h 8.4 km/h 88% 0.0 mm
01:19 22.6 °C 20.5 °C 1015.9 hPa ESE 3.1 km/h 8 km/h 88% 0.0 mm
01:24 22.6 °C 20.5 °C 1015.9 hPa ESE 3.9 km/h 8 km/h 88% 0.0 mm
01:29 22.5 °C 20.4 °C 1015.9 hPa ESE 3 km/h 7.4 km/h 88% 0.0 mm
01:34 22.5 °C 20.3 °C 1015.9 hPa Calm   8 km/h 87.1% 0.0 mm
01:39 22.4 °C 19.9 °C 1015.8 hPa SSE 1.1 km/h 8 km/h 85.7% 0.0 mm
01:44 22.3 °C 19.4 °C 1015.8 hPa SSE 5 km/h 9.3 km/h 83.8% 0.0 mm
01:49 22.3 °C 19.2 °C 1015.8 hPa SSE 5.2 km/h 9.7 km/h 82.6% 0.0 mm
01:54 22.3 °C 19 °C 1015.8 hPa SSE 5.8 km/h 9.3 km/h 81.8% 0.0 mm
01:59 22.3 °C 18.9 °C 1015.8 hPa SSE 5.8 km/h 9.7 km/h 81.2% 0.0 mm
02:04 22.3 °C 18.9 °C 1015.9 hPa Sur 5.8 km/h 9.7 km/h 81% 0.0 mm
02:09 22.3 °C 19 °C 1015.9 hPa Sur 6 km/h 10 km/h 81.9% 0.0 mm
02:14 22.3 °C 19.1 °C 1015.9 hPa SSO 6.9 km/h 11.9 km/h 82.1% 0.0 mm
02:19 22.3 °C 19.3 °C 1015.9 hPa SSO 6.9 km/h 11.3 km/h 83% 0.0 mm
02:24 22.2 °C 19.2 °C 1015.9 hPa SSO 6.9 km/h 10 km/h 83% 0.0 mm
02:29 22.3 °C 19.3 °C 1015.9 hPa SSO 6.9 km/h 11.1 km/h 83% 0.0 mm
02:34 22.2 °C 19.2 °C 1016.0 hPa SSO 6.9 km/h 11.3 km/h 83.2% 0.0 mm
02:39 22.2 °C 19.3 °C 1016.0 hPa SSO 6.7 km/h 9.3 km/h 83.8% 0.0 mm
02:44 22.2 °C 19.4 °C 1016.0 hPa SSO 5.8 km/h 9.7 km/h 84% 0.0 mm
02:49 22.2 °C 19.4 °C 1016.0 hPa SSO 5.6 km/h 9.3 km/h 84% 0.0 mm
02:54 22.2 °C 19.4 °C 1015.9 hPa SSO 5 km/h 9.7 km/h 84% 0.0 mm
02:59 22.2 °C 19.4 °C 1015.9 hPa SSO 5 km/h 9.5 km/h 84% 0.0 mm
03:04 22.2 °C 19.4 °C 1015.9 hPa SSO 5 km/h 9.7 km/h 84% 0.0 mm
03:09 22.2 °C 19.5 °C 1015.7 hPa SSO 5 km/h 8.4 km/h 84.9% 0.0 mm
03:14 22.2 °C 19.6 °C 1015.7 hPa SSO 5 km/h 8 km/h 85% 0.0 mm
03:19 22.2 °C 19.6 °C 1015.8 hPa Sur 4.7 km/h 7.4 km/h 85% 0.0 mm
03:24 22.2 °C 19.6 °C 1015.8 hPa Sur 3.9 km/h 8 km/h 85% 0.0 mm
03:29 22.2 °C 19.5 °C 1015.8 hPa Sur 3.9 km/h 8 km/h 85% 0.0 mm
03:34 22.1 °C 19.4 °C 1015.8 hPa Sur 3.9 km/h 7.4 km/h 85% 0.0 mm
03:39 22.1 °C 19.4 °C 1015.7 hPa Sur 3.9 km/h 8 km/h 85% 0.0 mm
03:44 22 °C 19.3 °C 1015.7 hPa Sur 3.9 km/h 8 km/h 85% 0.0 mm
03:49 22 °C 19.3 °C 1015.7 hPa Sur 3.9 km/h 8 km/h 85% 0.0 mm
03:54 21.9 °C 19.3 °C 1015.7 hPa SSE 3.9 km/h 8 km/h 85% 0.0 mm
03:59 21.9 °C 19.3 °C 1015.7 hPa SSE 3.7 km/h 8 km/h 85% 0.0 mm
04:04 21.9 °C 19.3 °C 1015.7 hPa SSE 3.2 km/h 4.7 km/h 85% 0.0 mm
04:09 21.9 °C 19.3 °C 1015.7 hPa SSE 3 km/h 4.8 km/h 85% 0.0 mm
04:14 21.8 °C 19.2 °C 1015.7 hPa SSE 2.2 km/h 5.6 km/h 85% 0.0 mm
04:19 21.8 °C 19.2 °C 1015.8 hPa SSE 2.2 km/h 4.8 km/h 85% 0.0 mm
04:24 21.8 °C 19.2 °C 1015.8 hPa SSE 2.2 km/h 3.2 km/h 85% 0.0 mm
04:29 21.8 °C 19.2 °C 1015.8 hPa SSE 1.8 km/h 2.3 km/h 85% 0.0 mm
04:34 21.7 °C 19.1 °C 1015.8 hPa Calm   1.9 km/h 85% 0.0 mm
04:39 21.7 °C 19.1 °C 1015.8 hPa Calm   5.6 km/h 85% 0.0 mm
04:44 21.7 °C 19.1 °C 1015.8 hPa Calm   4.8 km/h 85% 0.0 mm
04:49 21.7 °C 19.1 °C 1016.0 hPa Calm   3.7 km/h 85% 0.0 mm
04:54 21.7 °C 19.1 °C 1016.0 hPa Calm   3.2 km/h 85.5% 0.0 mm
04:59 21.6 °C 19.2 °C 1016.0 hPa Calm     86% 0.0 mm
05:04 21.6 °C 19.2 °C 1016.0 hPa Calm     86% 0.0 mm
05:09 21.6 °C 19.2 °C 1015.9 hPa Calm     86% 0.0 mm
05:14 21.6 °C 19.3 °C 1015.9 hPa Calm     86.5% 0.0 mm
05:19 21.7 °C 19.4 °C 1016.0 hPa Calm     87% 0.0 mm
05:24 21.7 °C 19.4 °C 1016.0 hPa Calm     87% 0.0 mm
05:29 21.7 °C 19.4 °C 1016.0 hPa Calm     87% 0.0 mm
05:34 21.7 °C 19.4 °C 1016.0 hPa Calm   3.9 km/h 87% 0.0 mm
05:39 21.7 °C 19.5 °C 1016.0 hPa Calm   3.7 km/h 87% 0.0 mm
05:44 21.8 °C 19.5 °C 1016.0 hPa Calm   3.7 km/h 87% 0.0 mm
05:49 21.8 °C 19.6 °C 1016.0 hPa Calm   3.7 km/h 87% 0.0 mm
05:54 21.8 °C 19.4 °C 1016.0 hPa Calm   5.8 km/h 86.2% 0.0 mm
05:59 21.7 °C 19.3 °C 1016.0 hPa SE 0.7 km/h 6.4 km/h 86.3% 0.0 mm
06:04 21.7 °C 19.4 °C 1016.1 hPa SE 2.9 km/h 7.4 km/h 86.6% 0.0 mm
06:09 21.7 °C 19.4 °C 1016.1 hPa SE 3 km/h 8 km/h 87% 0.0 mm
06:14 21.7 °C 19.4 °C 1016.1 hPa SE 3.2 km/h 4.8 km/h 87% 0.0 mm
06:19 21.7 °C 19.4 °C 1016.2 hPa SE 2.5 km/h 3.9 km/h 87% 0.0 mm
06:24 21.7 °C 19.4 °C 1016.2 hPa Calm   3.2 km/h 87% 0.0 mm
06:29 21.7 °C 19.5 °C 1016.2 hPa Calm   7.6 km/h 87% 0.0 mm
06:34 21.7 °C 19.5 °C 1016.3 hPa Calm   8 km/h 87% 0.0 mm
06:39 21.7 °C 19.5 °C 1016.3 hPa Oeste 0.7 km/h 8 km/h 87% 0.0 mm
06:44 21.7 °C 19.4 °C 1016.3 hPa Oeste 3.9 km/h 8.4 km/h 86.5% 0.0 mm
06:49 21.7 °C 19.3 °C 1016.3 hPa OSO 4 km/h 9.3 km/h 86% 0.0 mm
06:54 21.7 °C 19.3 °C 1016.3 hPa SO 4.7 km/h 9.7 km/h 85.9% 0.0 mm
06:59 21.7 °C 19 °C 1016.3 hPa OSO 4.7 km/h 10 km/h 85% 0.0 mm
07:04 21.7 °C 18.9 °C 1016.4 hPa SO 5 km/h 9.7 km/h 84.4% 0.0 mm
07:09 21.7 °C 18.9 °C 1016.4 hPa OSO 5 km/h 9.7 km/h 84% 0.0 mm
07:14 21.7 °C 18.9 °C 1016.4 hPa OSO 5 km/h 8.4 km/h 84% 0.0 mm
07:19 21.7 °C 18.9 °C 1016.5 hPa OSO 4.9 km/h 8 km/h 84% 0.0 mm
07:24 21.7 °C 18.8 °C 1016.5 hPa SO 4.7 km/h 8.7 km/h 84% 0.0 mm
07:29 21.6 °C 18.8 °C 1016.5 hPa SO 4.9 km/h 11.1 km/h 83.9% 0.0 mm
07:34 21.5 °C 18.7 °C 1016.6 hPa OSO 5.8 km/h 11.3 km/h 83.9% 0.0 mm
07:39 21.5 °C 18.5 °C 1016.6 hPa OSO 5.8 km/h 11.1 km/h 83.5% 0.0 mm
07:44 21.4 °C 18.4 °C 1016.6 hPa OSO 5.8 km/h 11.3 km/h 83.3% 0.0 mm
07:49 21.4 °C 18.4 °C 1016.7 hPa OSO 5.6 km/h 9.5 km/h 83.2% 0.0 mm
07:54 21.3 °C 18.5 °C 1016.7 hPa Oeste 5 km/h 9.7 km/h 84% 0.0 mm
07:59 21.3 °C 18.5 °C 1016.7 hPa Oeste 4.9 km/h 9.7 km/h 84% 0.0 mm
08:04 21.2 °C 18.4 °C 1016.9 hPa Oeste 4.7 km/h 8.4 km/h 84% 0.0 mm
08:09 21.2 °C 18.4 °C 1016.9 hPa Oeste 4.7 km/h 8 km/h 84% 0.0 mm
08:14 21.2 °C 18.4 °C 1016.9 hPa ONO 4.7 km/h 8.4 km/h 84% 0.0 mm
08:19 21.1 °C 18.2 °C 1017.0 hPa ONO 4.7 km/h 9.3 km/h 84% 0.0 mm
08:24 20.9 °C 18.1 °C 1017.0 hPa ONO 5 km/h 9.7 km/h 84% 0.0 mm
08:29 20.8 °C 18 °C 1017.0 hPa Oeste 5.2 km/h 9.7 km/h 84% 0.0 mm
08:34 20.7 °C 17.9 °C 1017.2 hPa Oeste 5.8 km/h 9.7 km/h 84% 0.0 mm
08:39 20.7 °C 17.9 °C 1017.2 hPa Oeste 5.4 km/h 9.7 km/h 84% 0.0 mm
08:44 20.8 °C 18 °C 1017.2 hPa Oeste 3.9 km/h 8.4 km/h 84% 0.0 mm
08:49 20.8 °C 18 °C 1017.3 hPa Oeste 4.1 km/h 9.3 km/h 84% 0.0 mm
08:54 20.9 °C 18.1 °C 1017.3 hPa Oeste 5 km/h 9.7 km/h 84% 0.0 mm
08:59 21 °C 18.2 °C 1017.3 hPa ONO 5 km/h 10 km/h 84% 0.0 mm
09:04 21.1 °C 18.3 °C 1017.5 hPa ONO 5 km/h 9.7 km/h 84% 0.0 mm
09:09 21.2 °C 18.3 °C 1017.5 hPa ONO 5 km/h 9.5 km/h 83.4% 0.0 mm
09:14 21.3 °C 18.3 °C 1017.5 hPa ONO 5 km/h 9.7 km/h 83% 0.0 mm
09:19 21.3 °C 18.3 °C 1017.6 hPa ONO 5 km/h 10 km/h 83% 0.0 mm
09:24 21.4 °C 18.4 °C 1017.6 hPa Oeste 5 km/h 9.7 km/h 83% 0.0 mm
09:29 21.5 °C 18.5 °C 1017.6 hPa ONO 4.9 km/h 9.7 km/h 82.6% 0.0 mm
09:34 21.6 °C 18.4 °C 1017.8 hPa Oeste 4.7 km/h 9.7 km/h 82% 0.0 mm
09:39 21.8 °C 18.5 °C 1017.8 hPa OSO 4.7 km/h 8 km/h 81.9% 0.0 mm
09:44 21.9 °C 18.5 °C 1017.8 hPa OSO 4.7 km/h 8 km/h 81% 0.0 mm
09:49 22.2 °C 18.7 °C 1017.9 hPa Oeste 4.5 km/h 8 km/h 80.7% 0.0 mm
09:54 22.3 °C 18.7 °C 1017.9 hPa NO 3.9 km/h 8.4 km/h 79.6% 0.0 mm
09:59 22.6 °C 18.8 °C 1017.9 hPa ONO 3.9 km/h 8 km/h 79% 0.0 mm
10:04 22.8 °C 18.9 °C 1018.0 hPa Oeste 3.9 km/h 5.6 km/h 79% 0.0 mm
10:09 23 °C 19 °C 1018.0 hPa ONO 3.5 km/h 7.4 km/h 78.5% 0.0 mm
10:14 23.3 °C 19 °C 1018.0 hPa SO 2.2 km/h 8 km/h 76.8% 0.0 mm
10:19 23.6 °C 19 °C 1018.2 hPa ESE 2.5 km/h 5.8 km/h 75.4% 0.0 mm
10:24 23.9 °C 19.2 °C 1018.2 hPa NNE 3.2 km/h 6.4 km/h 74.6% 0.0 mm
10:29 24.1 °C 19.1 °C 1018.2 hPa ONO 3.5 km/h 10 km/h 73.7% 0.0 mm
10:34 23.8 °C 19 °C 1018.3 hPa Oeste 4.7 km/h 9.7 km/h 74.6% 0.0 mm
10:39 23.7 °C 19 °C 1018.3 hPa Oeste 4.7 km/h 9.7 km/h 75% 0.0 mm
10:44 23.6 °C 18.9 °C 1018.3 hPa Oeste 4.7 km/h 10 km/h 75% 0.0 mm
10:49 23.6 °C 18.9 °C 1018.4 hPa Oeste 4.9 km/h 10 km/h 75% 0.0 mm
10:54 23.6 °C 18.9 °C 1018.4 hPa ONO 5.8 km/h 9.7 km/h 75% 0.0 mm
10:59 23.7 °C 19 °C 1018.4 hPa ONO 5.3 km/h 8 km/h 75.1% 0.0 mm
11:04 23.8 °C 19.1 °C 1018.4 hPa NO 3.9 km/h 8.4 km/h 74.6% 0.0 mm
11:09 24 °C 19 °C 1018.3 hPa ONO 4 km/h 9.5 km/h 73.8% 0.0 mm
11:14 24.1 °C 19.1 °C 1018.3 hPa Oeste 4.7 km/h 9.7 km/h 73.9% 0.0 mm
11:19 24.3 °C 19.1 °C 1018.4 hPa SSE 4.3 km/h 7.4 km/h 72.8% 0.0 mm
11:24 24.6 °C 19 °C 1018.4 hPa Sur 2.9 km/h 8 km/h 70.9% 0.0 mm
11:29 24.8 °C 18.9 °C 1018.4 hPa ENE 3.1 km/h 8 km/h 70% 0.0 mm
11:34 25 °C 19 °C 1018.4 hPa NNE 3.9 km/h 8 km/h 69.3% 0.0 mm
11:39 25.2 °C 19.1 °C 1018.3 hPa NNO 3.9 km/h 9.3 km/h 68.6% 0.0 mm
11:44 25.3 °C 18.8 °C 1018.3 hPa NNE 3.9 km/h 13 km/h 67.3% 0.0 mm
11:49 25.4 °C 18.7 °C 1018.3 hPa NE 4.1 km/h 12.9 km/h 66.2% 0.0 mm
11:54 25.3 °C 18.6 °C 1018.3 hPa NNE 5 km/h 9.7 km/h 66.1% 0.0 mm
11:59 25.3 °C 18.5 °C 1018.3 hPa NO 4.9 km/h 9.7 km/h 66% 0.0 mm
12:04 25.4 °C 18.7 °C 1018.3 hPa North 4.7 km/h 10.3 km/h 66.3% 0.0 mm
12:09 25.7 °C 18.7 °C 1018.2 hPa NNE 4.7 km/h 11.3 km/h 65.6% 0.0 mm
12:14 25.8 °C 18.6 °C 1018.2 hPa NE 4.7 km/h 9.5 km/h 64.5% 0.0 mm
12:19 25.9 °C 18.6 °C 1018.2 hPa NNE 4.5 km/h 10 km/h 64% 0.0 mm
12:24 26.1 °C 18.4 °C 1018.1 hPa ENE 3.9 km/h 11.9 km/h 62.7% 0.0 mm
12:29 26.1 °C 18.2 °C 1018.1 hPa ESE 4.6 km/h 13.7 km/h 61.8% 0.0 mm
12:34 26.2 °C 18.2 °C 1018.2 hPa ENE 6.9 km/h 14.5 km/h 61.4% 0.0 mm
12:39 26.3 °C 18.2 °C 1018.2 hPa North 6.5 km/h 10 km/h 61% 0.0 mm
12:44 26.4 °C 18.6 °C 1018.2 hPa NE 5 km/h 13 km/h 62.2% 0.0 mm
12:49 26.4 °C 18.5 °C 1018.2 hPa NE 5.4 km/h 14.8 km/h 61.8% 0.0 mm
12:54 26.3 °C 18.1 °C 1018.1 hPa NE 6.9 km/h 18.5 km/h 60.7% 0.0 mm
12:59 26.3 °C 18.1 °C 1018.1 hPa NE 7.3 km/h 19.3 km/h 60.8% 0.0 mm
13:04 26.3 °C 18.1 °C 1018.1 hPa NE 8.4 km/h 14.8 km/h 60.7% 0.0 mm
13:09 26.3 °C 18.3 °C 1018.0 hPa North 8 km/h 14.5 km/h 61.5% 0.0 mm
13:14 26.5 °C 18.4 °C 1018.0 hPa North 6.5 km/h 14.8 km/h 61.2% 0.0 mm
13:19 26.6 °C 18.5 °C 1018.0 hPa North 6.6 km/h 14.5 km/h 61.2% 0.0 mm
13:24 26.7 °C 18.4 °C 1017.8 hPa ENE 6.9 km/h 13.7 km/h 60.4% 0.0 mm
13:29 26.8 °C 18.5 °C 1017.8 hPa NNE 7.2 km/h 24.1 km/h 60.3% 0.0 mm
13:34 26.7 °C 18.6 °C 1017.8 hPa NNE 8.4 km/h 24.1 km/h 61% 0.0 mm
13:39 26.8 °C 18.8 °C 1017.7 hPa NE 8.7 km/h 19.3 km/h 61.8% 0.0 mm
13:44 26.9 °C 19 °C 1017.7 hPa Este 10 km/h 14.5 km/h 62% 0.0 mm
13:49 27.2 °C 19.1 °C 1017.7 hPa NE 9.4 km/h 16.7 km/h 61.4% 0.0 mm
13:54 27.2 °C 18.9 °C 1017.4 hPa Este 6.9 km/h 16.7 km/h 60.8% 0.0 mm
13:59 27.2 °C 18.8 °C 1017.4 hPa NNE 7.6 km/h 16.7 km/h 60.2% 0.0 mm
14:04 27.1 °C 18.7 °C 1017.4 hPa North 9.5 km/h 16.1 km/h 60% 0.0 mm
14:09 27.3 °C 18.8 °C 1017.3 hPa NE 9.2 km/h 17.2 km/h 59.9% 0.0 mm
14:14 27.2 °C 18.7 °C 1017.3 hPa NE 8.4 km/h 17.7 km/h 59.9% 0.0 mm
14:19 27.2 °C 18.8 °C 1017.3 hPa NE 8.2 km/h 16.7 km/h 60% 0.0 mm
14:24 27.2 °C 18.7 °C 1017.0 hPa NNE 7.6 km/h 16.7 km/h 59.7% 0.0 mm
14:29 27.3 °C 18.8 °C 1017.0 hPa NE 8 km/h 16.7 km/h 59.7% 0.0 mm
14:34 27.3 °C 18.8 °C 1017.0 hPa NNE 9.5 km/h 16.7 km/h 59.6% 0.0 mm
14:39 27.5 °C 18.8 °C 1016.8 hPa NE 9.6 km/h 16.1 km/h 59.2% 0.0 mm
14:44 27.5 °C 18.8 °C 1016.8 hPa ENE 10 km/h 16.7 km/h 59% 0.0 mm
14:49 27.6 °C 18.7 °C 1016.8 hPa ENE 9.9 km/h 18.5 km/h 58.4% 0.0 mm
14:54 27.6 °C 18.8 °C 1016.5 hPa NE 9.5 km/h 20.9 km/h 58.5% 0.0 mm
14:59 27.7 °C 18.7 °C 1016.5 hPa NNE 9 km/h 20.9 km/h 58% 0.0 mm
15:04 27.7 °C 18.7 °C 1016.5 hPa NE 7.6 km/h 20.9 km/h 58% 0.0 mm
15:09 27.8 °C 18.7 °C 1016.4 hPa NE 7.7 km/h 20.9 km/h 57.8% 0.0 mm
15:14 28 °C 18.7 °C 1016.4 hPa NE 8.4 km/h 16.1 km/h 57% 0.0 mm
15:19 28.1 °C 18.7 °C 1016.4 hPa NE 8.8 km/h 23.3 km/h 56.8% 0.0 mm
15:24 28 °C 18.7 °C 1016.4 hPa ENE 10.3 km/h 24.1 km/h 56.9% 0.0 mm
15:29 28 °C 18.6 °C 1016.4 hPa NE 10.2 km/h 24.1 km/h 56.5% 0.0 mm
15:34 28.2 °C 18.8 °C 1016.4 hPa NE 10 km/h 18.5 km/h 57.1% 0.0 mm
15:39 28.2 °C 18.9 °C 1016.2 hPa ENE 10 km/h 24.5 km/h 57.4% 0.0 mm
15:44 28 °C 19 °C 1016.2 hPa NE 10.3 km/h 24.1 km/h 58% 0.0 mm
15:49 28.2 °C 19.2 °C 1016.3 hPa ENE 10.3 km/h 19 km/h 58.3% 0.0 mm
15:54 28.3 °C 19.2 °C 1016.3 hPa NE 10.3 km/h 22.2 km/h 57.8% 0.0 mm
15:59 28 °C 19.2 °C 1016.3 hPa NE 10.8 km/h 22.5 km/h 58.8% 0.0 mm
16:04 27.9 °C 19.4 °C 1016.3 hPa ENE 12.2 km/h 27.8 km/h 59.7% 0.0 mm
16:09 28 °C 19.4 °C 1016.2 hPa NE 12.4 km/h 27.4 km/h 59.8% 0.0 mm
16:14 28 °C 19.4 °C 1016.2 hPa NE 13 km/h 22.5 km/h 59.9% 0.0 mm
16:19 28.1 °C 19.5 °C 1016.2 hPa NE 12.6 km/h 20.9 km/h 59.6% 0.0 mm
16:24 28.2 °C 19.3 °C 1016.0 hPa NE 11.1 km/h 22 km/h 58.6% 0.0 mm
16:29 28.2 °C 19.2 °C 1016.0 hPa NE 11.3 km/h 22.5 km/h 58% 0.0 mm
16:34 28.3 °C 19 °C 1016.0 hPa ENE 12.2 km/h 19.3 km/h 57.2% 0.0 mm
16:39 28.5 °C 19.3 °C 1015.8 hPa ENE 11.7 km/h 18.5 km/h 57.4% 0.0 mm
16:44 28.5 °C 19.4 °C 1015.8 hPa NE 10 km/h 19.3 km/h 57.8% 0.0 mm
16:49 28.4 °C 19.2 °C 1015.8 hPa NE 10 km/h 20.9 km/h 57.6% 0.0 mm
16:54 28.3 °C 19.1 °C 1015.8 hPa ENE 10 km/h 20.9 km/h 57.5% 0.0 mm
16:59 28.2 °C 19.2 °C 1015.8 hPa NE 10.3 km/h 19.3 km/h 57.9% 0.0 mm
17:04 28.3 °C 19.2 °C 1015.8 hPa NE 11.1 km/h 20.1 km/h 57.8% 0.0 mm
17:09 28.2 °C 19.1 °C 1015.7 hPa NE 11.3 km/h 20.9 km/h 57.8% 0.0 mm
17:14 28.2 °C 19.2 °C 1015.7 hPa NE 11.9 km/h 20.9 km/h 57.9% 0.0 mm
17:19 28.3 °C 19.2 °C 1015.7 hPa ENE 11.7 km/h 20.9 km/h 58% 0.0 mm
17:24 28.3 °C 19.1 °C 1015.6 hPa ENE 11.1 km/h 20.9 km/h 57.4% 0.0 mm
17:29 28.5 °C 18.2 °C 1015.6 hPa Este 10.7 km/h 19.3 km/h 53.7% 0.0 mm
17:34 28.7 °C 18.8 °C 1015.6 hPa Este 9.5 km/h 19.3 km/h 55.3% 0.0 mm
17:39 28.7 °C 17.9 °C 1015.5 hPa SE 9.3 km/h 18.5 km/h 52.2% 0.0 mm
17:44 28.6 °C 17.6 °C 1015.5 hPa ESE 8.7 km/h 20.4 km/h 51.3% 0.0 mm
17:49 28.6 °C 17.5 °C 1015.5 hPa SE 9.1 km/h 20.9 km/h 51.1% 0.0 mm
17:54 28.6 °C 17.8 °C 1015.5 hPa SE 10.3 km/h 19.3 km/h 51.9% 0.0 mm
17:59 28.6 °C 17.8 °C 1015.5 hPa SE 10.2 km/h 20.9 km/h 52.1% 0.0 mm
18:04 28.4 °C 17.6 °C 1015.5 hPa SE 10 km/h 20.9 km/h 52.2% 0.0 mm
18:09 28.4 °C 18 °C 1015.4 hPa ESE 10.4 km/h 20.9 km/h 53.4% 0.0 mm
18:14 28.3 °C 18.2 °C 1015.4 hPa SE 11.9 km/h 19.3 km/h 54% 0.0 mm
18:19 28.3 °C 18.2 °C 1015.5 hPa SE 11.5 km/h 19 km/h 54.4% 0.0 mm
18:24 28.2 °C 18.3 °C 1015.5 hPa ESE 10.3 km/h 19.3 km/h 55.2% 0.0 mm
18:29 28.2 °C 18.6 °C 1015.5 hPa SE 10.3 km/h 19.3 km/h 56.3% 0.0 mm
18:34 28.1 °C 18.8 °C 1015.5 hPa ESE 10.3 km/h 16.7 km/h 57.3% 0.0 mm
18:39 27.8 °C 18.7 °C 1015.5 hPa ESE 10.3 km/h 19 km/h 57.5% 0.0 mm
18:44 27.7 °C 18.8 °C 1015.5 hPa ESE 10.3 km/h 19.3 km/h 58.7% 0.0 mm
18:49 27.6 °C 19 °C 1015.6 hPa SE 10.7 km/h 19.3 km/h 59.7% 0.0 mm
18:54 27.4 °C 19.1 °C 1015.6 hPa SE 11.9 km/h 19.3 km/h 60.5% 0.0 mm
18:59 27.4 °C 19.2 °C 1015.6 hPa ESE 11.5 km/h 19.3 km/h 61.1% 0.0 mm
19:04 27.3 °C 19.2 °C 1015.7 hPa ESE 10.3 km/h 17.2 km/h 61.3% 0.0 mm
19:09 27.2 °C 19.4 °C 1015.7 hPa ESE 10.5 km/h 19 km/h 62.3% 0.0 mm
19:14 26.9 °C 19.3 °C 1015.7 hPa ESE 11.1 km/h 19.3 km/h 63% 0.0 mm
19:19 26.8 °C 19.4 °C 1015.8 hPa ESE 10.9 km/h 22.2 km/h 64% 0.0 mm
19:24 26.7 °C 19.3 °C 1015.8 hPa ESE 10.3 km/h 22.5 km/h 64% 0.0 mm
19:29 26.5 °C 19.2 °C 1015.8 hPa ESE 10.5 km/h 16.7 km/h 64.6% 0.0 mm
19:34 26.3 °C 19.2 °C 1015.9 hPa ESE 11.1 km/h 16.1 km/h 65.2% 0.0 mm
19:39 26.3 °C 19.3 °C 1015.9 hPa ESE 10.5 km/h 16.1 km/h 65.6% 0.0 mm
19:44 26.2 °C 19.3 °C 1015.9 hPa ESE 8.4 km/h 12.9 km/h 66% 0.0 mm
19:49 26.1 °C 19.4 °C 1016.0 hPa ESE 7.9 km/h 11.3 km/h 66.9% 0.0 mm
19:54 25.9 °C 19.3 °C 1016.0 hPa Este 6.5 km/h 11.3 km/h 67% 0.0 mm
19:59 25.7 °C 19.3 °C 1016.0 hPa ESE 6.5 km/h 11.3 km/h 67.5% 0.0 mm
20:04 25.6 °C 19.5 °C 1016.1 hPa ESE 6.5 km/h 13 km/h 68.9% 0.0 mm
20:09 25.4 °C 19.4 °C 1016.1 hPa ESE 6.7 km/h 12.9 km/h 69.2% 0.0 mm
20:14 25.3 °C 19.5 °C 1016.1 hPa Este 7.6 km/h 11.3 km/h 70% 0.0 mm
20:19 25.2 °C 19.5 °C 1016.3 hPa Este 7.3 km/h 11.3 km/h 70.5% 0.0 mm
20:24 25.1 °C 19.3 °C 1016.3 hPa NE 6.5 km/h 10 km/h 70.3% 0.0 mm
20:29 25 °C 19.3 °C 1016.3 hPa NE 6.1 km/h 9.7 km/h 71% 0.0 mm
20:34 24.8 °C 19.5 °C 1016.3 hPa NE 5 km/h 11.1 km/h 72.1% 0.0 mm
20:39 24.7 °C 19.6 °C 1016.3 hPa ENE 5.2 km/h 11.3 km/h 73% 0.0 mm
20:44 24.6 °C 19.7 °C 1016.3 hPa NE 5.8 km/h 9.7 km/h 73.9% 0.0 mm
20:49 24.5 °C 19.6 °C 1016.5 hPa NE 5.6 km/h 11.1 km/h 74.1% 0.0 mm
20:54 24.4 °C 19.6 °C 1016.5 hPa ENE 5 km/h 11.3 km/h 75% 0.0 mm
20:59 24.3 °C 19.6 °C 1016.5 hPa ENE 5 km/h 9.7 km/h 75% 0.0 mm
21:04 24.3 °C 19.6 °C 1016.7 hPa ENE 5 km/h 10 km/h 75.2% 0.0 mm
21:09 24.2 °C 19.7 °C 1016.7 hPa ENE 5 km/h 10 km/h 75.9% 0.0 mm
21:14 24.2 °C 19.7 °C 1016.7 hPa NE 5 km/h 9.7 km/h 76% 0.0 mm
21:19 24.1 °C 19.8 °C 1017.0 hPa NNE 4.9 km/h 9.7 km/h 76.8% 0.0 mm
21:24 23.9 °C 19.8 °C 1017.0 hPa NE 4.7 km/h 10.3 km/h 77.4% 0.0 mm
21:29 23.7 °C 19.7 °C 1017.0 hPa NNE 5 km/h 11.3 km/h 78.3% 0.0 mm
21:34 23.6 °C 19.7 °C 1017.0 hPa NE 6.5 km/h 11.3 km/h 79% 0.0 mm
21:39 23.6 °C 19.7 °C 1017.0 hPa NE 6.6 km/h 11.1 km/h 79.1% 0.0 mm
21:44 23.5 °C 19.8 °C 1017.0 hPa NNE 6.9 km/h 11.3 km/h 80% 0.0 mm
21:49 23.4 °C 19.8 °C 1017.1 hPa NNE 6.8 km/h 10 km/h 80.3% 0.0 mm
21:54 23.3 °C 19.9 °C 1017.1 hPa NE 6.5 km/h 9.7 km/h 81% 0.0 mm
21:59 23.2 °C 20 °C 1017.1 hPa NE 6.3 km/h 9.7 km/h 82% 0.0 mm
22:04 23.2 °C 20 °C 1017.3 hPa NE 5.8 km/h 11.1 km/h 82.4% 0.0 mm
22:09 23 °C 20 °C 1017.3 hPa NE 6 km/h 13 km/h 83.2% 0.0 mm
22:14 22.9 °C 20.1 °C 1017.3 hPa NE 6.9 km/h 13 km/h 84% 0.0 mm
22:19 22.8 °C 20 °C 1017.4 hPa NE 7.3 km/h 12.9 km/h 84.2% 0.0 mm
22:24 22.8 °C 20.1 °C 1017.4 hPa NE 8.4 km/h 13 km/h 85% 0.0 mm
22:29 22.7 °C 20.1 °C 1017.4 hPa NE 8.4 km/h 14.8 km/h 85% 0.0 mm
22:34 22.7 °C 20.1 °C 1017.6 hPa NE 8.7 km/h 14.5 km/h 85% 0.0 mm
22:39 22.7 °C 20.1 °C 1017.6 hPa NE 8.4 km/h 14.8 km/h 85.4% 0.0 mm
22:44 22.7 °C 20.2 °C 1017.6 hPa NE 7.6 km/h 14.8 km/h 86% 0.0 mm
22:49 22.7 °C 20.2 °C 1017.6 hPa NE 7.7 km/h 14.8 km/h 86% 0.0 mm
22:54 22.6 °C 20.1 °C 1017.6 hPa NE 8.4 km/h 16.7 km/h 86% 0.0 mm
22:59 22.6 °C 20.2 °C 1017.6 hPa NE 8.4 km/h 16.1 km/h 86.4% 0.0 mm
23:04 22.6 °C 20.3 °C 1017.6 hPa NE 8.4 km/h 14.5 km/h 87% 0.0 mm
23:09 22.5 °C 20.2 °C 1017.6 hPa NE 8 km/h 12.9 km/h 87% 0.0 mm
23:14 22.4 °C 20.1 °C 1017.6 hPa NE 6.9 km/h 11.1 km/h 87% 0.0 mm
23:19 22.4 °C 20.1 °C 1017.7 hPa NE 7.1 km/h 11.3 km/h 87.3% 0.0 mm
23:24 22.3 °C 20.2 °C 1017.7 hPa NE 7.6 km/h 11.3 km/h 88% 0.0 mm
23:29 22.3 °C 20.2 °C 1017.7 hPa NE 7 km/h 9.7 km/h 88% 0.0 mm
23:34 22.3 °C 20.2 °C 1017.8 hPa NE 5 km/h 7.6 km/h 88% 0.0 mm
23:39 22.3 °C 20.2 °C 1017.8 hPa NE 4.9 km/h 8 km/h 88% 0.0 mm
23:44 22.3 °C 20.2 °C 1017.8 hPa NE 4.7 km/h 8 km/h 88% 0.0 mm
23:49 22.3 °C 20.2 °C 1017.8 hPa ENE 4.5 km/h 7.4 km/h 88% 0.0 mm
23:54 22.2 °C 20.1 °C 1017.8 hPa Este 3.9 km/h 8 km/h 88% 0.0 mm
23:59 22.2 °C 20.1 °C 1017.8 hPa ENE 3.9 km/h 9.3 km/h 88% 0.0 mm
Murcia-Puente Tocinos, España
Compliments of Weather Underground - 3 mb

La estación de MeteoMurcia.com, publica sus datos en los siguientes proyectos:

Weather Underground PWS IMURCIAP2 Meteoclimatic www.awekas.at

W3Counter
Web Analytics